Flight Track Log - Related Links

Times and Time Zones

All times are in EDT time to prevent confusion due to time zone crossing. See the SWA2697 flight status page for this flight to view local times or setup timezone preferences in your user account.

Time Position Orientation Groundspeed Altitude Reporting Facility
EDT Latitude Longitude Course Direction KTS MPH feet Rate Location/Type
Wed 11:42:08 AM 36.1097 -115.2342 276° West 227 261 7,000  Level Los Angeles Center
Wed 11:43:15 AM 36.0792 -115.3036 241° Southwest 258 297 9,900 2,558 Climbing Los Angeles Center
Wed 11:44:17 AM 35.9897 -115.3042 180° South 312 359 12,500 3,435 Climbing Los Angeles Center
Wed 11:45:19 AM 35.8683 -115.2994 178° South 348 400 17,000 3,774 Climbing Los Angeles Center
Wed 11:46:21 AM 35.7597 -115.2964 179° South 376 433 20,300 2,903 Climbing Los Angeles Center
Wed 11:47:23 AM 35.6564 -115.3244 192° South 379 436 23,000 1,790 Climbing Los Angeles Center
Wed 11:48:25 AM 35.5875 -115.4169 228° Southwest 364 419 24,000 484 Climbing Los Angeles Center
Wed 11:49:27 AM 35.5197 -115.5094 228° Southwest 364 419 24,000 -48 Level Los Angeles Center
Wed 11:50:29 AM 35.4492 -115.6025 227° Southwest 363 418 23,900 -48 Descending Los Angeles Center
Wed 11:51:31 AM 35.3814 -115.6922 227° Southwest 359 413 23,900 48 Level Los Angeles Center
Wed 11:52:33 AM 35.3083 -115.7928 228° Southwest 389 448 24,000  Climbing Los Angeles Center
Wed 11:53:35 AM 35.2289 -115.8964 227° Southwest 413 475 23,900 -48 Descending Los Angeles Center
Wed 11:54:37 AM 35.1356 -116.0200 227° Southwest 413 475 23,900 48 Level Los Angeles Center
Wed 11:55:39 AM 35.0558 -116.1250 227° Southwest 418 481 24,000  Climbing Los Angeles Center
Wed 11:56:41 AM 34.9756 -116.2269 226° Southwest 418 481 23,900 -48 Descending Los Angeles Center
Wed 11:57:43 AM 34.9006 -116.3281 228° Southwest 408 470 23,900  Level Los Angeles Center
Wed 11:58:45 AM 34.8222 -116.4294 227° Southwest 410 472 23,900  Level Los Angeles Center
Wed 11:59:47 AM 34.7425 -116.5311 226° Southwest 413 475 23,900 -576 Level Los Angeles Center
Wed 12:00:50 PM 34.6450 -116.6489 225° Southwest 411 473 22,700 -1,824 Descending Los Angeles Center
Wed 12:01:52 PM 34.5681 -116.7428 225° Southwest 396 456 20,100 -2,419 Descending Los Angeles Center
Wed 12:02:54 PM 34.4939 -116.8328 225° Southwest 379 436 17,700 -2,371 Descending Los Angeles Center
Wed 12:03:56 PM 34.4217 -116.9228 226° Southwest 373 429 15,200 -2,371 Descending Los Angeles Center
Wed 12:04:58 PM 34.3469 -117.0114 224° Southwest 374 430 12,800 -1,500 Descending Los Angeles Center
Wed 12:06:00 PM 34.2792 -117.0936 225° Southwest 351 404 12,100 -1,355 Descending Los Angeles Center
Wed 12:07:02 PM 34.2069 -117.1800 225° Southwest 320 368 10,000 -1,790 Descending Los Angeles Center
Wed 12:08:04 PM 34.1500 -117.2533 227° Southwest 305 351 8,400 -1,677 Descending Los Angeles Center
Wed 12:08:35 PM 34.1167 -117.3000 229° Southwest 302 348 7,400 -1,648 Descending Southern California TRACON
Wed 12:09:35 PM 34.0667 -117.3667 228° Southwest 246 283 5,900 -1,357 Descending Southern California TRACON
Wed 12:10:30 PM 34.0500 -117.4167 248° West 194 223 4,800 -1,474 Descending Southern California TRACON
Wed 12:11:29 PM 34.0500 -117.4833 270° West 178 205 3,100 -1,513 Descending Southern California TRACON
Wed 12:12:29 PM 34.0500 -117.5333 270° West 169 194 1,800 -1,050 Descending Southern California TRACON
Wed 12:13:29 PM 34.0667 -117.5833 292° West 247 284 1,000 -800 Descending Southern California TRACON
Wed 12:15:00 PM 34.0500 -117.6000 270° West  Level FlightAware Approximate
Wed 12:22:00 PM 34.0560 -117.6012 270° West  Level Estimated
Wed 12:23:00 PM 34.0500 -117.6000 270° West  Level FlightAware Approximate
Wed 12:24:00 PM 34.0560 -117.6012 270° West  Level Estimated

Login

Don't have an account? Register now (free) for customized features, flight alerts, and more!